Clare Christine — V2DT7 — position and weather

sailwx.info

Track history (hours):
 
Tides and Currents Weather Stations Pressure Air Temp Water Temp Dewpoint Dewpoint Depression Visibility Wind Speed Wind Dir Waves Ship Positions

Clare Christine

Last reported at 2014-Sep-09 04:13 UTC. Time now 2014-Sep-20 18:06 UTC.
Position N 49°59' E 000°45'.
Warning: this ship's position is 11 days out of date.

Length 89 m; draft 3.4 m.

Type: Cargo ship. MMSI: 305379000.

Date/timePositionNaut miles runAvg speedWind from/ knotsBaromVisibWave heightAir tempDewpointWater temp
2014-Sep-09 04:13N 49°59' E 000°45'4 4.3
2014-Sep-09 03:25N 49°59' E 000°50'2 1.9
2014-Sep-09 02:29N 49°58' E 000°47'3 3.0
2014-Sep-09 01:33N 50°00' E 000°51'4 4.2
2014-Sep-09 00:33N 50°01' E 000°57'5 4.5
2014-Sep-08 23:32N 49°59' E 000°50'2 2.0
2014-Sep-08 22:33N 49°60' E 000°54'5 5.1
2014-Sep-08 21:34N 50°03' E 000°59'2411.3
2014-Sep-08 19:26N 50°26' E 000°50'1011.7
2014-Sep-08 18:34N 50°37' E 000°48'1111.2
2014-Sep-08 17:33N 50°46' E 000°58'1412.7
2014-Sep-08 16:27N 50°56' E 001°14'1111.9
2014-Sep-08 15:33N 51°03' E 001°26'1010.3
2014-Sep-08 14:34N 51°06' E 001°42'5 5.1
2014-Sep-08 13:31N 51°05' E 001°50'0 0.0
2014-Sep-08 12:31N 51°05' E 001°50'0 0.0
2014-Sep-08 11:31N 51°05' E 001°50'0 0.0
2014-Sep-08 10:31N 51°05' E 001°50'0 0.0
2014-Sep-08 09:31N 51°05' E 001°50'0 0.1
2014-Sep-08 08:31N 51°05' E 001°50'0 0.0
2014-Sep-08 07:31N 51°05' E 001°50'0 0.0
2014-Sep-08 06:31N 51°05' E 001°50'0 0.0
2014-Sep-08 05:28N 51°05' E 001°50'0 0.0
2014-Sep-08 04:31N 51°05' E 001°50'0 0.0
2014-Sep-08 03:31N 51°05' E 001°50'0 0.0
2014-Sep-08 02:31N 51°05' E 001°50'3 3.2
2014-Sep-08 01:33N 51°02' E 001°52'11 7.9
2014-Sep-08 00:07N 51°01' E 002°10'1 0.8
2014-Sep-07 23:31N 51°00' E 002°11'0 0.0
2014-Sep-07 21:31N 51°00' E 002°11'0 0.0
2014-Sep-07 20:22N 51°00' E 002°11'0 0.0
2014-Sep-07 19:28N 51°00' E 002°11'0 0.0
2014-Sep-07 18:19N 51°00' E 002°11'0 0.0
2014-Sep-07 16:04N 51°00' E 002°11'0 0.0
2014-Sep-07 15:28N 51°00' E 002°11'0 0.0
2014-Sep-07 12:28N 51°00' E 002°11'0 0.0
2014-Sep-07 11:25N 51°00' E 002°11'0 0.0
2014-Sep-07 09:32N 51°00' E 002°11'0 0.0
2014-Sep-07 08:33N 51°00' E 002°11'4 4.1
2014-Sep-07 07:31N 51°03' E 002°05'9 9.4
2014-Sep-07 06:33N 51°02' E 001°51'5 4.6
2014-Sep-07 05:33N 51°02' E 001°44'4 4.3
2014-Sep-07 04:33N 50°60' E 001°37'6 5.7
2014-Sep-07 03:33N 50°55' E 001°31'6 6.4
2014-Sep-07 02:33N 50°49' E 001°28'6 5.6
2014-Sep-07 01:33N 50°44' E 001°25'6 6.0
2014-Sep-07 00:33N 50°39' E 001°19'7 6.6
2014-Sep-06 23:33N 50°35' E 001°12'8 7.5
2014-Sep-06 22:33N 50°30' E 001°03'9 9.0
2014-Sep-06 21:33N 50°26' E 000°50'9 9.3
2014-Sep-06 20:33N 50°24' E 000°36'10 9.8
2014-Sep-06 19:33N 50°21' E 000°21'1210.6
2014-Sep-06 18:25N 50°18' E 000°03'1011.9
2014-Sep-06 17:33N 50°16' W 000°13'1212.5
2014-Sep-06 16:33N 50°12' W 000°31'1010.3
2014-Sep-06 15:33N 50°10' W 000°47'1110.2
2014-Sep-06 14:31N 50°07' W 001°03'9 9.6
2014-Sep-06 13:31N 50°04' W 001°17'181 8.3
2014-Sep-05 15:33N 50°23' W 005°59'8 7.8
2014-Sep-05 14:33N 50°27' W 005°49'9 8.9
2014-Sep-05 13:33N 50°32' W 005°38'9 8.8
2014-Sep-05 12:33N 50°39' W 005°28'9 8.9
2014-Sep-05 11:33N 50°44' W 005°18'9 8.9
2014-Sep-05 10:33N 50°51' W 005°08'7010.0
2014-Sep-05 03:33N 51°20' W 003°27'9 9.5
2014-Sep-05 02:33N 51°23' W 003°13'10 9.6
2014-Sep-05 01:33N 51°29' W 003°01'4 4.4
2014-Sep-05 00:32N 51°33' W 002°58'0 0.0
2014-Sep-04 19:28N 51°33' W 002°58'0 0.0
2014-Sep-04 18:31N 51°33' W 002°58'0 0.0
2014-Sep-04 17:33N 51°33' W 002°58'0 0.0
2014-Sep-04 16:33N 51°33' W 002°58'0 0.0
2014-Sep-04 15:32N 51°33' W 002°58'0 0.0
2014-Sep-04 14:33N 51°33' W 002°58'0 0.0
2014-Sep-04 13:07N 51°33' W 002°58'0 0.0
2014-Sep-04 12:31N 51°33' W 002°58'0 0.0
2014-Sep-04 11:30N 51°33' W 002°58'0 0.0
2014-Sep-04 02:32N 51°33' W 002°58'0 0.0
2014-Sep-04 00:27N 51°33' W 002°58'0 0.0
2014-Sep-03 23:33N 51°33' W 002°58'0 0.0
2014-Sep-03 22:33N 51°33' W 002°58'0 0.0
2014-Sep-03 21:30N 51°33' W 002°58'0 0.0
2014-Sep-03 14:26N 51°33' W 002°58'0 0.0
2014-Sep-03 13:28N 51°33' W 002°58'0 0.0
2014-Sep-03 12:33N 51°33' W 002°58'1 0.8
2014-Sep-03 11:32N 51°33' W 002°59'1010.7
2014-Sep-03 10:33N 51°24' W 003°07'117 3.6
2014-Sep-02 02:14N 51°42' W 006°13'710.1
2014-Sep-02 01:30N 51°47' W 006°22'910.1
2014-Sep-02 00:33N 51°53' W 006°34'10 9.5
2014-Sep-01 23:33N 51°56' W 006°48'1010.0
2014-Sep-01 22:33N 52°03' W 006°59'10 9.9
2014-Sep-01 21:33N 52°13' W 006°56'7 6.6
2014-Sep-01 20:34N 52°20' W 006°59'4 3.5
2014-Sep-01 19:32N 52°23' W 006°58'0 0.0
2014-Sep-01 18:32N 52°23' W 006°58'0 0.0
2014-Sep-01 17:32N 52°23' W 006°58'0 0.0
2014-Sep-01 16:32N 52°23' W 006°58'0 0.0
2014-Sep-01 15:32N 52°23' W 006°58'0 0.0
2014-Sep-01 14:32N 52°23' W 006°58'0 0.0
2014-Sep-01 13:32N 52°23' W 006°58'0 0.0
2014-Sep-01 12:32N 52°23' W 006°58'0 0.0
2014-Sep-01 11:32N 52°23' W 006°58'0 0.0
2014-Sep-01 10:32N 52°23' W 006°58'0 0.0
2014-Sep-01 09:32N 52°23' W 006°58'0 0.0
2014-Sep-01 08:32N 52°23' W 006°58'0 0.0
2014-Sep-01 07:32N 52°23' W 006°58'0 0.0
2014-Sep-01 06:32N 52°23' W 006°58'0 0.0
2014-Sep-01 05:32N 52°23' W 006°58'0 0.0
2014-Sep-01 04:32N 52°23' W 006°58'0 0.0
2014-Sep-01 03:32N 52°23' W 006°58'0 0.0
2014-Sep-01 02:29N 52°23' W 006°58'0 0.0
2014-Sep-01 01:32N 52°23' W 006°58'0 0.0
2014-Sep-01 00:32N 52°23' W 006°58'0 0.0
2014-Aug-31 23:29N 52°23' W 006°58'0 0.0
2014-Aug-31 22:32N 52°23' W 006°58'0 0.1
2014-Aug-31 21:32N 52°23' W 006°58'5 5.5
2014-Aug-31 20:33N 52°18' W 007°01'8 7.6
2014-Aug-31 19:33N 52°11' W 006°56'2 1.8
2014-Aug-31 18:33N 52°09' W 006°58'0 0.0
2014-Aug-31 17:30N 52°09' W 006°58'0 0.0
2014-Aug-31 16:33N 52°09' W 006°58'0 0.0
2014-Aug-31 15:33N 52°09' W 006°58'0 0.0
2014-Aug-31 14:33N 52°09' W 006°58'0 0.0
2014-Aug-31 13:33N 52°09' W 006°58'0 0.1
2014-Aug-31 12:33N 52°09' W 006°58'0 0.1
2014-Aug-31 11:33N 52°09' W 006°58'0 0.0
2014-Aug-31 10:33N 52°09' W 006°58'0 0.0
2014-Aug-31 09:33N 52°09' W 006°58'7 6.9
2014-Aug-31 08:33N 52°02' W 006°56'9 9.3
2014-Aug-31 07:33N 51°54' W 006°50'10 9.7
2014-Aug-31 06:30N 51°44' W 006°44'10 9.1
2014-Aug-31 05:27N 51°35' W 006°39'8 8.6
2014-Aug-31 04:29N 51°27' W 006°34'8 8.4
2014-Aug-31 03:33N 51°20' W 006°30'  
Track history (hours):
 
Tides and Currents Weather Stations Pressure Air Temp Water Temp Dewpoint Dewpoint Depression Visibility Wind Speed Wind Dir Waves Ship Positions

Clare Christine

Last reported at 2014-Sep-09 04:13 UTC. Time now 2014-Sep-20 18:06 UTC.
Position N 49°59' E 000°45'.
Warning: this ship's position is 11 days out of date.

Length 89 m; draft 3.4 m.

Type: Cargo ship. MMSI: 305379000.

Date/timePositionNaut miles runAvg speedWind from/ knotsBaromVisibWave heightAir tempDewpointWater temp
2014-Sep-09 04:13N 49°59' E 000°45'4 4.3
2014-Sep-09 03:25N 49°59' E 000°50'2 1.9
2014-Sep-09 02:29N 49°58' E 000°47'3 3.0
2014-Sep-09 01:33N 50°00' E 000°51'4 4.2
2014-Sep-09 00:33N 50°01' E 000°57'5 4.5
2014-Sep-08 23:32N 49°59' E 000°50'2 2.0
2014-Sep-08 22:33N 49°60' E 000°54'5 5.1
2014-Sep-08 21:34N 50°03' E 000°59'2411.3
2014-Sep-08 19:26N 50°26' E 000°50'1011.7
2014-Sep-08 18:34N 50°37' E 000°48'1111.2
2014-Sep-08 17:33N 50°46' E 000°58'1412.7
2014-Sep-08 16:27N 50°56' E 001°14'1111.9
2014-Sep-08 15:33N 51°03' E 001°26'1010.3
2014-Sep-08 14:34N 51°06' E 001°42'5 5.1
2014-Sep-08 13:31N 51°05' E 001°50'0 0.0
2014-Sep-08 12:31N 51°05' E 001°50'0 0.0
2014-Sep-08 11:31N 51°05' E 001°50'0 0.0
2014-Sep-08 10:31N 51°05' E 001°50'0 0.0
2014-Sep-08 09:31N 51°05' E 001°50'0 0.1
2014-Sep-08 08:31N 51°05' E 001°50'0 0.0
2014-Sep-08 07:31N 51°05' E 001°50'0 0.0
2014-Sep-08 06:31N 51°05' E 001°50'0 0.0
2014-Sep-08 05:28N 51°05' E 001°50'0 0.0
2014-Sep-08 04:31N 51°05' E 001°50'0 0.0
2014-Sep-08 03:31N 51°05' E 001°50'0 0.0
2014-Sep-08 02:31N 51°05' E 001°50'3 3.2
2014-Sep-08 01:33N 51°02' E 001°52'11 7.9
2014-Sep-08 00:07N 51°01' E 002°10'1 0.8
2014-Sep-07 23:31N 51°00' E 002°11'0 0.0
2014-Sep-07 21:31N 51°00' E 002°11'0 0.0
2014-Sep-07 20:22N 51°00' E 002°11'0 0.0
2014-Sep-07 19:28N 51°00' E 002°11'0 0.0
2014-Sep-07 18:19N 51°00' E 002°11'0 0.0
2014-Sep-07 16:04N 51°00' E 002°11'0 0.0
2014-Sep-07 15:28N 51°00' E 002°11'0 0.0
2014-Sep-07 12:28N 51°00' E 002°11'0 0.0
2014-Sep-07 11:25N 51°00' E 002°11'0 0.0
2014-Sep-07 09:32N 51°00' E 002°11'0 0.0
2014-Sep-07 08:33N 51°00' E 002°11'4 4.1
2014-Sep-07 07:31N 51°03' E 002°05'9 9.4
2014-Sep-07 06:33N 51°02' E 001°51'5 4.6
2014-Sep-07 05:33N 51°02' E 001°44'4 4.3
2014-Sep-07 04:33N 50°60' E 001°37'6 5.7
2014-Sep-07 03:33N 50°55' E 001°31'6 6.4
2014-Sep-07 02:33N 50°49' E 001°28'6 5.6
2014-Sep-07 01:33N 50°44' E 001°25'6 6.0
2014-Sep-07 00:33N 50°39' E 001°19'7 6.6
2014-Sep-06 23:33N 50°35' E 001°12'8 7.5
2014-Sep-06 22:33N 50°30' E 001°03'9 9.0
2014-Sep-06 21:33N 50°26' E 000°50'9 9.3
2014-Sep-06 20:33N 50°24' E 000°36'10 9.8
2014-Sep-06 19:33N 50°21' E 000°21'1210.6
2014-Sep-06 18:25N 50°18' E 000°03'1011.9
2014-Sep-06 17:33N 50°16' W 000°13'1212.5
2014-Sep-06 16:33N 50°12' W 000°31'1010.3
2014-Sep-06 15:33N 50°10' W 000°47'1110.2
2014-Sep-06 14:31N 50°07' W 001°03'9 9.6
2014-Sep-06 13:31N 50°04' W 001°17'181 8.3
2014-Sep-05 15:33N 50°23' W 005°59'8 7.8
2014-Sep-05 14:33N 50°27' W 005°49'9 8.9
2014-Sep-05 13:33N 50°32' W 005°38'9 8.8
2014-Sep-05 12:33N 50°39' W 005°28'9 8.9
2014-Sep-05 11:33N 50°44' W 005°18'9 8.9
2014-Sep-05 10:33N 50°51' W 005°08'7010.0
2014-Sep-05 03:33N 51°20' W 003°27'9 9.5
2014-Sep-05 02:33N 51°23' W 003°13'10 9.6
2014-Sep-05 01:33N 51°29' W 003°01'4 4.4
2014-Sep-05 00:32N 51°33' W 002°58'0 0.0
2014-Sep-04 19:28N 51°33' W 002°58'0 0.0
2014-Sep-04 18:31N 51°33' W 002°58'0 0.0
2014-Sep-04 17:33N 51°33' W 002°58'0 0.0
2014-Sep-04 16:33N 51°33' W 002°58'0 0.0
2014-Sep-04 15:32N 51°33' W 002°58'0 0.0
2014-Sep-04 14:33N 51°33' W 002°58'0 0.0
2014-Sep-04 13:07N 51°33' W 002°58'0 0.0
2014-Sep-04 12:31N 51°33' W 002°58'0 0.0
2014-Sep-04 11:30N 51°33' W 002°58'0 0.0
2014-Sep-04 02:32N 51°33' W 002°58'0 0.0
2014-Sep-04 00:27N 51°33' W 002°58'0 0.0
2014-Sep-03 23:33N 51°33' W 002°58'0 0.0
2014-Sep-03 22:33N 51°33' W 002°58'0 0.0
2014-Sep-03 21:30N 51°33' W 002°58'0 0.0
2014-Sep-03 14:26N 51°33' W 002°58'0 0.0
2014-Sep-03 13:28N 51°33' W 002°58'0 0.0
2014-Sep-03 12:33N 51°33' W 002°58'1 0.8
2014-Sep-03 11:32N 51°33' W 002°59'1010.7
2014-Sep-03 10:33N 51°24' W 003°07'117 3.6
2014-Sep-02 02:14N 51°42' W 006°13'710.1
2014-Sep-02 01:30N 51°47' W 006°22'910.1
2014-Sep-02 00:33N 51°53' W 006°34'10 9.5
2014-Sep-01 23:33N 51°56' W 006°48'1010.0
2014-Sep-01 22:33N 52°03' W 006°59'10 9.9
2014-Sep-01 21:33N 52°13' W 006°56'7 6.6
2014-Sep-01 20:34N 52°20' W 006°59'4 3.5
2014-Sep-01 19:32N 52°23' W 006°58'0 0.0
2014-Sep-01 18:32N 52°23' W 006°58'0 0.0
2014-Sep-01 17:32N 52°23' W 006°58'0 0.0
2014-Sep-01 16:32N 52°23' W 006°58'0 0.0
2014-Sep-01 15:32N 52°23' W 006°58'0 0.0
2014-Sep-01 14:32N 52°23' W 006°58'0 0.0
2014-Sep-01 13:32N 52°23' W 006°58'0 0.0
2014-Sep-01 12:32N 52°23' W 006°58'0 0.0
2014-Sep-01 11:32N 52°23' W 006°58'0 0.0
2014-Sep-01 10:32N 52°23' W 006°58'0 0.0
2014-Sep-01 09:32N 52°23' W 006°58'0 0.0
2014-Sep-01 08:32N 52°23' W 006°58'0 0.0
2014-Sep-01 07:32N 52°23' W 006°58'0 0.0
2014-Sep-01 06:32N 52°23' W 006°58'0 0.0
2014-Sep-01 05:32N 52°23' W 006°58'0 0.0
2014-Sep-01 04:32N 52°23' W 006°58'0 0.0
2014-Sep-01 03:32N 52°23' W 006°58'0 0.0
2014-Sep-01 02:29N 52°23' W 006°58'0 0.0
2014-Sep-01 01:32N 52°23' W 006°58'0 0.0
2014-Sep-01 00:32N 52°23' W 006°58'0 0.0
2014-Aug-31 23:29N 52°23' W 006°58'0 0.0
2014-Aug-31 22:32N 52°23' W 006°58'0 0.1
2014-Aug-31 21:32N 52°23' W 006°58'5 5.5
2014-Aug-31 20:33N 52°18' W 007°01'8 7.6
2014-Aug-31 19:33N 52°11' W 006°56'2 1.8
2014-Aug-31 18:33N 52°09' W 006°58'0 0.0
2014-Aug-31 17:30N 52°09' W 006°58'0 0.0
2014-Aug-31 16:33N 52°09' W 006°58'0 0.0
2014-Aug-31 15:33N 52°09' W 006°58'0 0.0
2014-Aug-31 14:33N 52°09' W 006°58'0 0.0
2014-Aug-31 13:33N 52°09' W 006°58'0 0.1
2014-Aug-31 12:33N 52°09' W 006°58'0 0.1
2014-Aug-31 11:33N 52°09' W 006°58'0 0.0
2014-Aug-31 10:33N 52°09' W 006°58'0 0.0
2014-Aug-31 09:33N 52°09' W 006°58'7 6.9
2014-Aug-31 08:33N 52°02' W 006°56'9 9.3
2014-Aug-31 07:33N 51°54' W 006°50'10 9.7
2014-Aug-31 06:30N 51°44' W 006°44'10 9.1
2014-Aug-31 05:27N 51°35' W 006°39'8 8.6
2014-Aug-31 04:29N 51°27' W 006°34'8 8.4
2014-Aug-31 03:33N 51°20' W 006°30'  

Dump ship's entire track history